sensor_id;sensor_type;location;lat;lon;timestamp;P1;durP1;ratioP1;P2;durP2;ratioP2
36411;SDS011;22445;52.100;5.176;2023-01-23T00:00:06;14.05;;;10.40;;
36411;SDS011;22445;52.100;5.176;2023-01-23T00:02:35;17.98;;;9.50;;
36411;SDS011;22445;52.100;5.176;2023-01-23T00:05:00;17.52;;;10.73;;
36411;SDS011;22445;52.100;5.176;2023-01-23T00:07:26;12.52;;;9.90;;
36411;SDS011;22445;52.100;5.176;2023-01-23T00:09:52;14.20;;;10.15;;
36411;SDS011;22445;52.100;5.176;2023-01-23T00:12:17;17.83;;;9.73;;
36411;SDS011;22445;52.100;5.176;2023-01-23T00:14:43;13.85;;;9.60;;
36411;SDS011;22445;52.100;5.176;2023-01-23T00:17:08;11.73;;;9.10;;
36411;SDS011;22445;52.100;5.176;2023-01-23T00:19:34;15.23;;;9.77;;
36411;SDS011;22445;52.100;5.176;2023-01-23T00:21:59;14.45;;;9.98;;
36411;SDS011;22445;52.100;5.176;2023-01-23T00:24:25;16.30;;;10.02;;
36411;SDS011;22445;52.100;5.176;2023-01-23T00:26:50;13.23;;;9.30;;
36411;SDS011;22445;52.100;5.176;2023-01-23T00:29:16;20.33;;;10.32;;
36411;SDS011;22445;52.100;5.176;2023-01-23T00:31:42;17.55;;;9.90;;
36411;SDS011;22445;52.100;5.176;2023-01-23T00:34:09;14.85;;;10.75;;
36411;SDS011;22445;52.100;5.176;2023-01-23T00:36:37;15.82;;;11.13;;
36411;SDS011;22445;52.100;5.176;2023-01-23T00:39:05;20.38;;;11.95;;
36411;SDS011;22445;52.100;5.176;2023-01-23T00:41:33;17.95;;;11.27;;
36411;SDS011;22445;52.100;5.176;2023-01-23T00:43:58;18.35;;;10.85;;
36411;SDS011;22445;52.100;5.176;2023-01-23T00:46:24;18.05;;;10.38;;
36411;SDS011;22445;52.100;5.176;2023-01-23T00:48:49;17.58;;;11.15;;
36411;SDS011;22445;52.100;5.176;2023-01-23T00:51:16;18.15;;;11.80;;
36411;SDS011;22445;52.100;5.176;2023-01-23T00:53:42;22.75;;;11.27;;
36411;SDS011;22445;52.100;5.176;2023-01-23T00:56:07;21.52;;;12.70;;
36411;SDS011;22445;52.100;5.176;2023-01-23T00:58:34;18.48;;;12.07;;
36411;SDS011;22445;52.100;5.176;2023-01-23T01:01:00;17.80;;;11.02;;
36411;SDS011;22445;52.100;5.176;2023-01-23T01:03:25;22.15;;;11.75;;
36411;SDS011;22445;52.100;5.176;2023-01-23T01:05:51;22.65;;;11.93;;
36411;SDS011;22445;52.100;5.176;2023-01-23T01:08:16;21.80;;;12.07;;
36411;SDS011;22445;52.100;5.176;2023-01-23T01:10:42;22.73;;;12.52;;
36411;SDS011;22445;52.100;5.176;2023-01-23T01:13:07;21.10;;;11.18;;
36411;SDS011;22445;52.100;5.176;2023-01-23T01:15:34;20.15;;;12.00;;
36411;SDS011;22445;52.100;5.176;2023-01-23T01:18:00;19.70;;;11.80;;
36411;SDS011;22445;52.100;5.176;2023-01-23T01:20:26;20.92;;;12.20;;
36411;SDS011;22445;52.100;5.176;2023-01-23T01:22:53;21.83;;;11.30;;
36411;SDS011;22445;52.100;5.176;2023-01-23T01:25:20;18.30;;;12.10;;
36411;SDS011;22445;52.100;5.176;2023-01-23T01:27:46;20.50;;;11.50;;
36411;SDS011;22445;52.100;5.176;2023-01-23T01:30:11;18.08;;;12.32;;
36411;SDS011;22445;52.100;5.176;2023-01-23T01:32:38;19.65;;;12.40;;
36411;SDS011;22445;52.100;5.176;2023-01-23T01:35:04;22.30;;;12.68;;
36411;SDS011;22445;52.100;5.176;2023-01-23T01:37:32;17.45;;;11.90;;
36411;SDS011;22445;52.100;5.176;2023-01-23T01:40:00;19.10;;;11.80;;
36411;SDS011;22445;52.100;5.176;2023-01-23T01:42:27;18.33;;;12.88;;
36411;SDS011;22445;52.100;5.176;2023-01-23T01:44:54;26.50;;;13.23;;
36411;SDS011;22445;52.100;5.176;2023-01-23T01:47:21;25.10;;;13.70;;
36411;SDS011;22445;52.100;5.176;2023-01-23T01:49:47;16.02;;;11.73;;
36411;SDS011;22445;52.100;5.176;2023-01-23T01:52:15;20.10;;;13.45;;
36411;SDS011;22445;52.100;5.176;2023-01-23T01:54:42;18.98;;;12.00;;
36411;SDS011;22445;52.100;5.176;2023-01-23T01:57:34;20.92;;;12.07;;
36411;SDS011;22445;52.100;5.176;2023-01-23T02:00:07;20.83;;;12.65;;
36411;SDS011;22445;52.100;5.176;2023-01-23T02:02:46;24.13;;;12.63;;
36411;SDS011;22445;52.100;5.176;2023-01-23T02:05:19;22.58;;;13.38;;
36411;SDS011;22445;52.100;5.176;2023-01-23T02:07:54;21.65;;;13.20;;
36411;SDS011;22445;52.100;5.176;2023-01-23T02:10:23;23.00;;;13.20;;
36411;SDS011;22445;52.100;5.176;2023-01-23T02:12:49;20.83;;;13.25;;
36411;SDS011;22445;52.100;5.176;2023-01-23T02:15:16;19.60;;;12.15;;
36411;SDS011;22445;52.100;5.176;2023-01-23T02:17:43;22.88;;;12.82;;
36411;SDS011;22445;52.100;5.176;2023-01-23T02:20:23;22.00;;;13.23;;
36411;SDS011;22445;52.100;5.176;2023-01-23T02:26:00;20.98;;;13.18;;
36411;SDS011;22445;52.100;5.176;2023-01-23T02:28:36;20.45;;;13.02;;
36411;SDS011;22445;52.100;5.176;2023-01-23T02:31:03;21.80;;;13.10;;
36411;SDS011;22445;52.100;5.176;2023-01-23T02:36:18;21.92;;;13.43;;
36411;SDS011;22445;52.100;5.176;2023-01-23T02:38:47;21.95;;;11.93;;
36411;SDS011;22445;52.100;5.176;2023-01-23T02:41:20;20.63;;;13.45;;
36411;SDS011;22445;52.100;5.176;2023-01-23T02:43:50;21.48;;;14.57;;
36411;SDS011;22445;52.100;5.176;2023-01-23T02:46:16;20.38;;;13.30;;
36411;SDS011;22445;52.100;5.176;2023-01-23T02:48:44;23.92;;;13.00;;
36411;SDS011;22445;52.100;5.176;2023-01-23T02:51:11;19.85;;;12.98;;
36411;SDS011;22445;52.100;5.176;2023-01-23T02:53:37;19.13;;;12.50;;
36411;SDS011;22445;52.100;5.176;2023-01-23T02:56:03;17.85;;;12.70;;
36411;SDS011;22445;52.100;5.176;2023-01-23T02:58:29;17.00;;;12.70;;
36411;SDS011;22445;52.100;5.176;2023-01-23T03:01:13;24.83;;;14.45;;
36411;SDS011;22445;52.100;5.176;2023-01-23T03:03:39;20.33;;;12.68;;
36411;SDS011;22445;52.100;5.176;2023-01-23T03:06:06;25.08;;;13.07;;
36411;SDS011;22445;52.100;5.176;2023-01-23T03:08:32;17.90;;;13.02;;
36411;SDS011;22445;52.100;5.176;2023-01-23T03:11:00;23.80;;;13.45;;
36411;SDS011;22445;52.100;5.176;2023-01-23T03:13:27;19.10;;;12.77;;
36411;SDS011;22445;52.100;5.176;2023-01-23T03:15:53;24.42;;;13.68;;
36411;SDS011;22445;52.100;5.176;2023-01-23T03:18:22;24.20;;;13.50;;
36411;SDS011;22445;52.100;5.176;2023-01-23T03:20:48;23.73;;;14.00;;
36411;SDS011;22445;52.100;5.176;2023-01-23T03:23:13;28.92;;;13.65;;
36411;SDS011;22445;52.100;5.176;2023-01-23T03:25:43;27.10;;;14.80;;
36411;SDS011;22445;52.100;5.176;2023-01-23T03:28:10;29.13;;;14.68;;
36411;SDS011;22445;52.100;5.176;2023-01-23T03:30:55;22.35;;;14.82;;
36411;SDS011;22445;52.100;5.176;2023-01-23T03:33:21;25.55;;;14.40;;
36411;SDS011;22445;52.100;5.176;2023-01-23T03:35:47;22.38;;;13.70;;
36411;SDS011;22445;52.100;5.176;2023-01-23T03:38:13;23.00;;;14.65;;
36411;SDS011;22445;52.100;5.176;2023-01-23T03:40:42;24.58;;;16.48;;
36411;SDS011;22445;52.100;5.176;2023-01-23T03:43:29;23.52;;;14.35;;
36411;SDS011;22445;52.100;5.176;2023-01-23T03:45:58;27.08;;;15.07;;
36411;SDS011;22445;52.100;5.176;2023-01-23T03:48:23;26.88;;;16.02;;
36411;SDS011;22445;52.100;5.176;2023-01-23T03:50:49;24.80;;;14.25;;
36411;SDS011;22445;52.100;5.176;2023-01-23T03:53:15;35.08;;;18.90;;
36411;SDS011;22445;52.100;5.176;2023-01-23T03:55:40;26.23;;;14.77;;
36411;SDS011;22445;52.100;5.176;2023-01-23T03:58:09;24.05;;;14.75;;
36411;SDS011;22445;52.100;5.176;2023-01-23T04:00:35;25.13;;;15.10;;
36411;SDS011;22445;52.100;5.176;2023-01-23T04:03:01;23.20;;;14.18;;
36411;SDS011;22445;52.100;5.176;2023-01-23T04:05:26;32.22;;;15.60;;
36411;SDS011;22445;52.100;5.176;2023-01-23T04:07:51;26.00;;;15.57;;
36411;SDS011;22445;52.100;5.176;2023-01-23T04:10:17;25.38;;;14.10;;
36411;SDS011;22445;52.100;5.176;2023-01-23T04:12:42;24.63;;;14.95;;
36411;SDS011;22445;52.100;5.176;2023-01-23T04:15:08;25.20;;;14.73;;
36411;SDS011;22445;52.100;5.176;2023-01-23T04:17:34;24.67;;;14.75;;
36411;SDS011;22445;52.100;5.176;2023-01-23T04:20:00;23.77;;;14.68;;
36411;SDS011;22445;52.100;5.176;2023-01-23T04:22:26;23.67;;;15.15;;
36411;SDS011;22445;52.100;5.176;2023-01-23T04:24:52;28.20;;;14.88;;
36411;SDS011;22445;52.100;5.176;2023-01-23T04:27:17;23.23;;;14.13;;
36411;SDS011;22445;52.100;5.176;2023-01-23T04:29:43;29.30;;;15.40;;
36411;SDS011;22445;52.100;5.176;2023-01-23T04:32:08;23.02;;;15.07;;
36411;SDS011;22445;52.100;5.176;2023-01-23T04:34:34;27.02;;;15.27;;
36411;SDS011;22445;52.100;5.176;2023-01-23T04:36:59;27.65;;;15.32;;
36411;SDS011;22445;52.100;5.176;2023-01-23T04:39:25;27.83;;;16.02;;
36411;SDS011;22445;52.100;5.176;2023-01-23T04:41:50;26.08;;;14.88;;
36411;SDS011;22445;52.100;5.176;2023-01-23T04:44:16;28.23;;;15.57;;
36411;SDS011;22445;52.100;5.176;2023-01-23T04:46:45;24.60;;;14.43;;
36411;SDS011;22445;52.100;5.176;2023-01-23T04:49:11;28.70;;;15.55;;
36411;SDS011;22445;52.100;5.176;2023-01-23T04:51:37;32.65;;;16.02;;
36411;SDS011;22445;52.100;5.176;2023-01-23T04:54:03;23.17;;;15.40;;
36411;SDS011;22445;52.100;5.176;2023-01-23T04:56:28;26.33;;;16.63;;
36411;SDS011;22445;52.100;5.176;2023-01-23T04:58:54;29.90;;;16.63;;
36411;SDS011;22445;52.100;5.176;2023-01-23T05:01:19;26.65;;;14.95;;
36411;SDS011;22445;52.100;5.176;2023-01-23T05:03:48;28.60;;;14.88;;
36411;SDS011;22445;52.100;5.176;2023-01-23T05:06:14;27.52;;;14.90;;
36411;SDS011;22445;52.100;5.176;2023-01-23T05:08:39;25.20;;;14.98;;
36411;SDS011;22445;52.100;5.176;2023-01-23T05:11:05;28.50;;;16.20;;
36411;SDS011;22445;52.100;5.176;2023-01-23T05:13:30;24.58;;;15.73;;
36411;SDS011;22445;52.100;5.176;2023-01-23T05:15:56;26.50;;;15.00;;
36411;SDS011;22445;52.100;5.176;2023-01-23T05:18:21;26.30;;;15.35;;
36411;SDS011;22445;52.100;5.176;2023-01-23T05:20:47;25.42;;;15.63;;
36411;SDS011;22445;52.100;5.176;2023-01-23T05:23:12;31.85;;;16.85;;
36411;SDS011;22445;52.100;5.176;2023-01-23T05:25:38;22.70;;;15.52;;
36411;SDS011;22445;52.100;5.176;2023-01-23T05:28:03;25.05;;;15.07;;
36411;SDS011;22445;52.100;5.176;2023-01-23T05:30:29;28.05;;;16.90;;
36411;SDS011;22445;52.100;5.176;2023-01-23T05:32:55;29.08;;;15.52;;
36411;SDS011;22445;52.100;5.176;2023-01-23T05:35:20;25.95;;;16.10;;
36411;SDS011;22445;52.100;5.176;2023-01-23T05:37:49;27.08;;;16.02;;
36411;SDS011;22445;52.100;5.176;2023-01-23T05:40:15;25.42;;;15.05;;
36411;SDS011;22445;52.100;5.176;2023-01-23T05:42:41;25.17;;;15.93;;
36411;SDS011;22445;52.100;5.176;2023-01-23T05:45:07;28.70;;;16.52;;
36411;SDS011;22445;52.100;5.176;2023-01-23T05:47:33;26.77;;;15.25;;
36411;SDS011;22445;52.100;5.176;2023-01-23T05:49:58;31.40;;;16.90;;
36411;SDS011;22445;52.100;5.176;2023-01-23T05:52:25;27.83;;;16.55;;
36411;SDS011;22445;52.100;5.176;2023-01-23T05:54:50;25.63;;;16.17;;
36411;SDS011;22445;52.100;5.176;2023-01-23T05:57:16;24.35;;;16.38;;
36411;SDS011;22445;52.100;5.176;2023-01-23T05:59:41;27.92;;;16.35;;
36411;SDS011;22445;52.100;5.176;2023-01-23T06:02:07;27.75;;;16.63;;
36411;SDS011;22445;52.100;5.176;2023-01-23T06:04:33;27.65;;;15.70;;
36411;SDS011;22445;52.100;5.176;2023-01-23T06:06:58;30.80;;;17.60;;
36411;SDS011;22445;52.100;5.176;2023-01-23T06:09:24;28.60;;;16.75;;
36411;SDS011;22445;52.100;5.176;2023-01-23T06:11:49;27.15;;;18.70;;
36411;SDS011;22445;52.100;5.176;2023-01-23T06:14:15;33.80;;;17.33;;
36411;SDS011;22445;52.100;5.176;2023-01-23T06:16:40;32.70;;;17.83;;
36411;SDS011;22445;52.100;5.176;2023-01-23T06:19:06;30.77;;;16.85;;
36411;SDS011;22445;52.100;5.176;2023-01-23T06:21:31;28.25;;;18.02;;
36411;SDS011;22445;52.100;5.176;2023-01-23T06:23:57;25.45;;;16.00;;
36411;SDS011;22445;52.100;5.176;2023-01-23T06:26:23;29.60;;;17.23;;
36411;SDS011;22445;52.100;5.176;2023-01-23T06:28:49;24.90;;;16.10;;
36411;SDS011;22445;52.100;5.176;2023-01-23T06:31:15;28.00;;;15.93;;
36411;SDS011;22445;52.100;5.176;2023-01-23T06:33:40;29.73;;;16.80;;
36411;SDS011;22445;52.100;5.176;2023-01-23T06:36:06;28.38;;;17.48;;
36411;SDS011;22445;52.100;5.176;2023-01-23T06:38:32;31.33;;;18.10;;
36411;SDS011;22445;52.100;5.176;2023-01-23T06:40:57;29.50;;;16.92;;
36411;SDS011;22445;52.100;5.176;2023-01-23T06:43:24;31.67;;;17.65;;
36411;SDS011;22445;52.100;5.176;2023-01-23T06:45:49;30.42;;;17.95;;
36411;SDS011;22445;52.100;5.176;2023-01-23T06:48:15;30.05;;;17.52;;
36411;SDS011;22445;52.100;5.176;2023-01-23T06:50:41;30.92;;;17.65;;
36411;SDS011;22445;52.100;5.176;2023-01-23T06:53:07;25.40;;;17.42;;
36411;SDS011;22445;52.100;5.176;2023-01-23T06:55:33;31.23;;;17.75;;
36411;SDS011;22445;52.100;5.176;2023-01-23T06:57:59;33.10;;;17.85;;
36411;SDS011;22445;52.100;5.176;2023-01-23T07:00:25;31.67;;;17.90;;
36411;SDS011;22445;52.100;5.176;2023-01-23T07:02:51;30.25;;;17.05;;
36411;SDS011;22445;52.100;5.176;2023-01-23T07:05:17;30.52;;;18.30;;
36411;SDS011;22445;52.100;5.176;2023-01-23T07:07:43;27.75;;;17.95;;
36411;SDS011;22445;52.100;5.176;2023-01-23T07:10:09;38.80;;;19.40;;
36411;SDS011;22445;52.100;5.176;2023-01-23T07:12:35;32.50;;;20.60;;
36411;SDS011;22445;52.100;5.176;2023-01-23T07:15:01;41.53;;;19.42;;
36411;SDS011;22445;52.100;5.176;2023-01-23T07:17:26;27.23;;;18.42;;
36411;SDS011;22445;52.100;5.176;2023-01-23T07:19:52;33.53;;;18.17;;
36411;SDS011;22445;52.100;5.176;2023-01-23T07:22:19;31.70;;;18.52;;
36411;SDS011;22445;52.100;5.176;2023-01-23T07:24:45;28.23;;;17.33;;
36411;SDS011;22445;52.100;5.176;2023-01-23T07:27:12;29.75;;;17.73;;
36411;SDS011;22445;52.100;5.176;2023-01-23T07:29:38;30.25;;;17.35;;
36411;SDS011;22445;52.100;5.176;2023-01-23T07:32:04;33.75;;;18.33;;
36411;SDS011;22445;52.100;5.176;2023-01-23T07:34:30;35.03;;;20.63;;
36411;SDS011;22445;52.100;5.176;2023-01-23T07:36:55;30.25;;;17.98;;
36411;SDS011;22445;52.100;5.176;2023-01-23T07:39:21;34.33;;;18.15;;
36411;SDS011;22445;52.100;5.176;2023-01-23T07:41:46;33.17;;;17.85;;
36411;SDS011;22445;52.100;5.176;2023-01-23T07:44:16;34.67;;;17.92;;
36411;SDS011;22445;52.100;5.176;2023-01-23T07:46:44;27.98;;;17.20;;
36411;SDS011;22445;52.100;5.176;2023-01-23T07:49:10;25.98;;;17.17;;
36411;SDS011;22445;52.100;5.176;2023-01-23T07:51:36;25.70;;;17.42;;
36411;SDS011;22445;52.100;5.176;2023-01-23T07:54:01;32.88;;;17.77;;
36411;SDS011;22445;52.100;5.176;2023-01-23T07:56:27;31.00;;;19.25;;
36411;SDS011;22445;52.100;5.176;2023-01-23T07:58:52;25.33;;;17.08;;
36411;SDS011;22445;52.100;5.176;2023-01-23T08:01:18;26.42;;;16.27;;
36411;SDS011;22445;52.100;5.176;2023-01-23T08:03:44;26.63;;;18.05;;
36411;SDS011;22445;52.100;5.176;2023-01-23T08:06:10;35.30;;;17.80;;
36411;SDS011;22445;52.100;5.176;2023-01-23T08:08:36;31.05;;;17.80;;
36411;SDS011;22445;52.100;5.176;2023-01-23T08:11:02;27.60;;;18.38;;
36411;SDS011;22445;52.100;5.176;2023-01-23T08:13:29;28.35;;;18.85;;
36411;SDS011;22445;52.100;5.176;2023-01-23T08:15:56;30.77;;;18.40;;
36411;SDS011;22445;52.100;5.176;2023-01-23T08:18:22;31.02;;;18.08;;
36411;SDS011;22445;52.100;5.176;2023-01-23T08:20:54;27.67;;;18.23;;
36411;SDS011;22445;52.100;5.176;2023-01-23T08:23:23;28.83;;;18.00;;
36411;SDS011;22445;52.100;5.176;2023-01-23T08:25:52;31.10;;;18.52;;
36411;SDS011;22445;52.100;5.176;2023-01-23T08:28:22;29.02;;;18.75;;
36411;SDS011;22445;52.100;5.176;2023-01-23T08:30:48;35.58;;;19.02;;
36411;SDS011;22445;52.100;5.176;2023-01-23T08:33:14;29.35;;;18.23;;
36411;SDS011;22445;52.100;5.176;2023-01-23T08:35:47;27.90;;;19.42;;
36411;SDS011;22445;52.100;5.176;2023-01-23T08:38:19;29.63;;;19.80;;
36411;SDS011;22445;52.100;5.176;2023-01-23T08:40:46;27.90;;;19.38;;
36411;SDS011;22445;52.100;5.176;2023-01-23T08:43:13;34.88;;;18.88;;
36411;SDS011;22445;52.100;5.176;2023-01-23T08:45:39;32.28;;;18.77;;
36411;SDS011;22445;52.100;5.176;2023-01-23T08:48:05;33.97;;;19.48;;
36411;SDS011;22445;52.100;5.176;2023-01-23T08:50:32;32.13;;;18.50;;
36411;SDS011;22445;52.100;5.176;2023-01-23T08:52:57;29.08;;;17.75;;
36411;SDS011;22445;52.100;5.176;2023-01-23T08:55:23;26.23;;;18.10;;
36411;SDS011;22445;52.100;5.176;2023-01-23T08:57:49;23.70;;;17.25;;
36411;SDS011;22445;52.100;5.176;2023-01-23T09:00:15;29.00;;;17.77;;
36411;SDS011;22445;52.100;5.176;2023-01-23T09:02:41;24.42;;;17.20;;
36411;SDS011;22445;52.100;5.176;2023-01-23T09:05:06;23.00;;;17.70;;
36411;SDS011;22445;52.100;5.176;2023-01-23T09:07:32;23.20;;;17.02;;
36411;SDS011;22445;52.100;5.176;2023-01-23T09:10:01;24.45;;;16.92;;
36411;SDS011;22445;52.100;5.176;2023-01-23T09:12:26;24.73;;;15.88;;
36411;SDS011;22445;52.100;5.176;2023-01-23T09:14:52;23.30;;;16.20;;
36411;SDS011;22445;52.100;5.176;2023-01-23T09:17:18;24.52;;;14.88;;
36411;SDS011;22445;52.100;5.176;2023-01-23T09:19:44;21.48;;;15.48;;
36411;SDS011;22445;52.100;5.176;2023-01-23T09:22:09;19.83;;;14.90;;
36411;SDS011;22445;52.100;5.176;2023-01-23T09:24:35;22.05;;;15.90;;
36411;SDS011;22445;52.100;5.176;2023-01-23T09:27:01;22.83;;;15.25;;
36411;SDS011;22445;52.100;5.176;2023-01-23T09:29:26;21.38;;;14.70;;
36411;SDS011;22445;52.100;5.176;2023-01-23T09:31:52;21.27;;;15.32;;
36411;SDS011;22445;52.100;5.176;2023-01-23T09:34:17;20.70;;;15.23;;
36411;SDS011;22445;52.100;5.176;2023-01-23T09:36:43;22.05;;;15.18;;
36411;SDS011;22445;52.100;5.176;2023-01-23T09:39:09;19.33;;;14.63;;
36411;SDS011;22445;52.100;5.176;2023-01-23T09:41:35;19.17;;;14.27;;
36411;SDS011;22445;52.100;5.176;2023-01-23T09:47:22;25.20;;;16.10;;
36411;SDS011;22445;52.100;5.176;2023-01-23T09:52:43;19.17;;;13.75;;
36411;SDS011;22445;52.100;5.176;2023-01-23T09:55:21;17.65;;;13.65;;
36411;SDS011;22445;52.100;5.176;2023-01-23T09:57:54;21.15;;;13.90;;
36411;SDS011;22445;52.100;5.176;2023-01-23T10:00:24;18.92;;;14.43;;
36411;SDS011;22445;52.100;5.176;2023-01-23T10:02:51;18.83;;;13.63;;
36411;SDS011;22445;52.100;5.176;2023-01-23T10:05:18;18.40;;;13.70;;
36411;SDS011;22445;52.100;5.176;2023-01-23T10:08:30;23.10;;;14.57;;
36411;SDS011;22445;52.100;5.176;2023-01-23T10:10:55;14.50;;;12.38;;
36411;SDS011;22445;52.100;5.176;2023-01-23T10:22:33;18.25;;;14.18;;
36411;SDS011;22445;52.100;5.176;2023-01-23T10:25:08;20.10;;;14.68;;
36411;SDS011;22445;52.100;5.176;2023-01-23T10:27:59;17.42;;;13.10;;
36411;SDS011;22445;52.100;5.176;2023-01-23T10:30:35;19.38;;;14.65;;
36411;SDS011;22445;52.100;5.176;2023-01-23T10:33:10;21.23;;;13.80;;
36411;SDS011;22445;52.100;5.176;2023-01-23T10:35:39;16.80;;;14.20;;
36411;SDS011;22445;52.100;5.176;2023-01-23T10:38:34;18.10;;;13.30;;
36411;SDS011;22445;52.100;5.176;2023-01-23T10:41:07;17.50;;;13.25;;
36411;SDS011;22445;52.100;5.176;2023-01-23T10:43:42;19.70;;;14.48;;
36411;SDS011;22445;52.100;5.176;2023-01-23T10:46:13;18.50;;;13.52;;
36411;SDS011;22445;52.100;5.176;2023-01-23T10:48:44;16.02;;;13.75;;
36411;SDS011;22445;52.100;5.176;2023-01-23T10:54:16;15.65;;;13.15;;
36411;SDS011;22445;52.100;5.176;2023-01-23T10:56:48;16.98;;;14.00;;
36411;SDS011;22445;52.100;5.176;2023-01-23T11:02:29;13.70;;;12.02;;
36411;SDS011;22445;52.100;5.176;2023-01-23T11:04:56;15.32;;;12.30;;
36411;SDS011;22445;52.100;5.176;2023-01-23T11:07:23;18.65;;;12.75;;
36411;SDS011;22445;52.100;5.176;2023-01-23T11:09:54;17.30;;;12.43;;
36411;SDS011;22445;52.100;5.176;2023-01-23T11:12:26;13.85;;;11.45;;
36411;SDS011;22445;52.100;5.176;2023-01-23T11:17:40;13.65;;;11.63;;
36411;SDS011;22445;52.100;5.176;2023-01-23T11:20:51;12.30;;;11.02;;
36411;SDS011;22445;52.100;5.176;2023-01-23T11:23:11;11.75;;;9.77;;
36411;SDS011;22445;52.100;5.176;2023-01-23T11:25:42;15.27;;;11.48;;
36411;SDS011;22445;52.100;5.176;2023-01-23T11:28:28;11.90;;;10.20;;
36411;SDS011;22445;52.100;5.176;2023-01-23T11:39:56;8.50;;;7.65;;
36411;SDS011;22445;52.100;5.176;2023-01-23T11:42:25;8.07;;;7.38;;
36411;SDS011;22445;52.100;5.176;2023-01-23T11:44:52;8.45;;;7.43;;
36411;SDS011;22445;52.100;5.176;2023-01-23T11:59:37;9.23;;;8.23;;
36411;SDS011;22445;52.100;5.176;2023-01-23T12:02:22;7.88;;;7.07;;
36411;SDS011;22445;52.100;5.176;2023-01-23T12:08:22;8.40;;;7.57;;
36411;SDS011;22445;52.100;5.176;2023-01-23T12:11:02;8.90;;;8.00;;
36411;SDS011;22445;52.100;5.176;2023-01-23T12:13:43;8.05;;;7.22;;
36411;SDS011;22445;52.100;5.176;2023-01-23T12:25:39;10.48;;;8.90;;
36411;SDS011;22445;52.100;5.176;2023-01-23T12:44:08;11.05;;;9.23;;
36411;SDS011;22445;52.100;5.176;2023-01-23T12:47:01;10.88;;;9.75;;
36411;SDS011;22445;52.100;5.176;2023-01-23T12:52:27;10.45;;;9.00;;
36411;SDS011;22445;52.100;5.176;2023-01-23T12:55:01;11.05;;;9.45;;
36411;SDS011;22445;52.100;5.176;2023-01-23T12:57:57;10.07;;;9.07;;
36411;SDS011;22445;52.100;5.176;2023-01-23T13:04:07;10.98;;;9.23;;
36411;SDS011;22445;52.100;5.176;2023-01-23T13:10:10;12.93;;;9.80;;
36411;SDS011;22445;52.100;5.176;2023-01-23T13:12:51;9.65;;;8.63;;
36411;SDS011;22445;52.100;5.176;2023-01-23T13:15:21;11.15;;;8.50;;
36411;SDS011;22445;52.100;5.176;2023-01-23T13:18:00;10.98;;;9.52;;
36411;SDS011;22445;52.100;5.176;2023-01-23T13:20:32;9.55;;;8.50;;
36411;SDS011;22445;52.100;5.176;2023-01-23T13:23:30;10.55;;;9.40;;
36411;SDS011;22445;52.100;5.176;2023-01-23T13:29:01;12.20;;;9.43;;
36411;SDS011;22445;52.100;5.176;2023-01-23T13:31:32;13.30;;;10.02;;
36411;SDS011;22445;52.100;5.176;2023-01-23T13:37:30;14.80;;;10.65;;
36411;SDS011;22445;52.100;5.176;2023-01-23T13:42:55;14.30;;;10.73;;
36411;SDS011;22445;52.100;5.176;2023-01-23T13:45:22;13.68;;;10.57;;
36411;SDS011;22445;52.100;5.176;2023-01-23T13:51:23;14.07;;;10.93;;
36411;SDS011;22445;52.100;5.176;2023-01-23T13:53:48;12.55;;;10.65;;
36411;SDS011;22445;52.100;5.176;2023-01-23T13:56:34;14.05;;;10.10;;
36411;SDS011;22445;52.100;5.176;2023-01-23T13:59:05;17.33;;;11.43;;
36411;SDS011;22445;52.100;5.176;2023-01-23T14:01:47;13.60;;;10.65;;
36411;SDS011;22445;52.100;5.176;2023-01-23T14:04:34;13.27;;;9.70;;
36411;SDS011;22445;52.100;5.176;2023-01-23T14:07:24;13.45;;;9.73;;
36411;SDS011;22445;52.100;5.176;2023-01-23T14:10:14;15.73;;;10.77;;
36411;SDS011;22445;52.100;5.176;2023-01-23T14:12:48;13.75;;;11.48;;
36411;SDS011;22445;52.100;5.176;2023-01-23T14:24:17;13.80;;;10.48;;
36411;SDS011;22445;52.100;5.176;2023-01-23T14:26:47;13.73;;;10.45;;
36411;SDS011;22445;52.100;5.176;2023-01-23T14:29:19;14.63;;;10.85;;
36411;SDS011;22445;52.100;5.176;2023-01-23T14:31:48;15.52;;;11.32;;
36411;SDS011;22445;52.100;5.176;2023-01-23T14:34:18;15.15;;;10.95;;
36411;SDS011;22445;52.100;5.176;2023-01-23T14:36:53;13.32;;;10.30;;
36411;SDS011;22445;52.100;5.176;2023-01-23T14:39:45;14.32;;;10.27;;
36411;SDS011;22445;52.100;5.176;2023-01-23T14:44:58;12.77;;;9.57;;
36411;SDS011;22445;52.100;5.176;2023-01-23T14:50:18;12.63;;;10.00;;
36411;SDS011;22445;52.100;5.176;2023-01-23T14:52:55;15.82;;;10.27;;
36411;SDS011;22445;52.100;5.176;2023-01-23T14:55:40;13.40;;;9.82;;
36411;SDS011;22445;52.100;5.176;2023-01-23T14:58:12;14.70;;;10.63;;
36411;SDS011;22445;52.100;5.176;2023-01-23T15:00:47;13.00;;;10.30;;
36411;SDS011;22445;52.100;5.176;2023-01-23T15:03:32;13.73;;;10.32;;
36411;SDS011;22445;52.100;5.176;2023-01-23T15:05:58;12.68;;;8.52;;
36411;SDS011;22445;52.100;5.176;2023-01-23T15:08:28;13.73;;;9.10;;
36411;SDS011;22445;52.100;5.176;2023-01-23T15:10:56;12.80;;;9.10;;
36411;SDS011;22445;52.100;5.176;2023-01-23T15:13:25;13.68;;;9.40;;
36411;SDS011;22445;52.100;5.176;2023-01-23T15:15:56;12.88;;;9.73;;
36411;SDS011;22445;52.100;5.176;2023-01-23T15:18:23;12.23;;;8.82;;
36411;SDS011;22445;52.100;5.176;2023-01-23T15:20:55;10.93;;;9.18;;
36411;SDS011;22445;52.100;5.176;2023-01-23T15:23:26;11.95;;;9.48;;
36411;SDS011;22445;52.100;5.176;2023-01-23T15:26:09;9.10;;;7.88;;
36411;SDS011;22445;52.100;5.176;2023-01-23T15:28:52;12.32;;;9.45;;
36411;SDS011;22445;52.100;5.176;2023-01-23T15:39:57;12.43;;;9.48;;
36411;SDS011;22445;52.100;5.176;2023-01-23T15:42:33;12.52;;;9.93;;
36411;SDS011;22445;52.100;5.176;2023-01-23T15:44:59;14.30;;;9.48;;
36411;SDS011;22445;52.100;5.176;2023-01-23T15:47:29;10.15;;;8.40;;
36411;SDS011;22445;52.100;5.176;2023-01-23T15:49:55;11.68;;;9.25;;
36411;SDS011;22445;52.100;5.176;2023-01-23T15:52:25;11.15;;;8.27;;
36411;SDS011;22445;52.100;5.176;2023-01-23T15:54:54;12.45;;;8.55;;
36411;SDS011;22445;52.100;5.176;2023-01-23T15:57:22;9.50;;;7.97;;
36411;SDS011;22445;52.100;5.176;2023-01-23T15:59:47;12.98;;;9.23;;
36411;SDS011;22445;52.100;5.176;2023-01-23T16:02:14;11.45;;;8.70;;
36411;SDS011;22445;52.100;5.176;2023-01-23T16:04:41;10.55;;;8.60;;
36411;SDS011;22445;52.100;5.176;2023-01-23T16:07:07;11.38;;;9.02;;
36411;SDS011;22445;52.100;5.176;2023-01-23T16:10:03;10.98;;;7.82;;
36411;SDS011;22445;52.100;5.176;2023-01-23T16:12:35;11.38;;;8.43;;
36411;SDS011;22445;52.100;5.176;2023-01-23T16:15:08;10.15;;;7.75;;
36411;SDS011;22445;52.100;5.176;2023-01-23T16:17:38;8.68;;;7.35;;
36411;SDS011;22445;52.100;5.176;2023-01-23T16:20:04;10.95;;;8.80;;
36411;SDS011;22445;52.100;5.176;2023-01-23T16:22:30;11.52;;;8.32;;
36411;SDS011;22445;52.100;5.176;2023-01-23T16:24:56;10.25;;;8.73;;
36411;SDS011;22445;52.100;5.176;2023-01-23T16:27:22;11.70;;;9.27;;
36411;SDS011;22445;52.100;5.176;2023-01-23T16:29:51;12.13;;;9.10;;
36411;SDS011;22445;52.100;5.176;2023-01-23T16:32:17;13.77;;;9.60;;
36411;SDS011;22445;52.100;5.176;2023-01-23T16:34:42;11.95;;;9.90;;
36411;SDS011;22445;52.100;5.176;2023-01-23T16:37:15;12.18;;;10.10;;
36411;SDS011;22445;52.100;5.176;2023-01-23T16:39:41;13.50;;;10.27;;